AFR356G LFPG-CYYZ
Flight info
| Callsign | AFR356G |
|---|---|
| Flight time | N/A |
| Altitude | 34000 |
| Route | ATREX DCT VESAN DCT RATUK DCT SOVAT L613 SANDY DCT OKSAW DCT TEWXI DCT VATRY DCT DIGAN DCT DOGAL/M083F360 NATF SAXAN/N0474F360 N556B ANATI/N0484F380 DCT YQO DCT IMORI Q921 AGLUK Q941 TAMKO Q852 KANUR Q806 TUKIR RAGID6 |
| Aircraft | B77W/H-SDE1E2E3FGHIJ2J3J4J5M1RWXY/LB1D1 |
Departure
| Time | N/A |
|---|---|
| Airport | Charles de Gaulle International Airport (LFPG) |
Arrival
| Time | 2026-05-03 21:48 |
|---|---|
| Airport | Toronto Pearson International Airport (CYYZ) |
| Time | Latitude | Longitude | Altitude | Speed | Heading |
|---|---|---|---|---|---|
| 2026-05-03 20:15 | 48.72357 | -66.44537 | 35824 ft | 433 kts | 240° |
| 2026-05-03 20:15 | 48.69941 | -66.52897 | 35825 ft | 433 kts | 240° |
| 2026-05-03 20:16 | 48.67517 | -66.61254 | 35817 ft | 433 kts | 240° |
| 2026-05-03 20:16 | 48.65109 | -66.69529 | 35822 ft | 432 kts | 240° |
| 2026-05-03 20:17 | 48.62680 | -66.77842 | 35818 ft | 432 kts | 240° |
| 2026-05-03 20:17 | 48.60244 | -66.86156 | 35848 ft | 433 kts | 240° |
| 2026-05-03 20:18 | 48.57786 | -66.94506 | 35819 ft | 436 kts | 240° |
| 2026-05-03 20:18 | 48.55313 | -67.02887 | 35799 ft | 437 kts | 240° |
| 2026-05-03 20:19 | 48.52835 | -67.11260 | 35799 ft | 437 kts | 240° |
| 2026-05-03 20:19 | 48.50353 | -67.19617 | 35816 ft | 436 kts | 240° |
| 2026-05-03 20:20 | 48.47866 | -67.27961 | 35814 ft | 436 kts | 240° |
| 2026-05-03 20:20 | 48.45374 | -67.36290 | 35802 ft | 436 kts | 240° |
| 2026-05-03 20:21 | 48.42876 | -67.44611 | 35794 ft | 436 kts | 240° |
| 2026-05-03 20:21 | 48.40370 | -67.52928 | 35799 ft | 436 kts | 240° |
| 2026-05-03 20:22 | 48.37856 | -67.61246 | 35820 ft | 437 kts | 240° |
| 2026-05-03 20:22 | 48.35331 | -67.69571 | 35801 ft | 438 kts | 240° |
| 2026-05-03 20:23 | 48.32793 | -67.77914 | 35800 ft | 439 kts | 240° |
| 2026-05-03 20:23 | 48.30247 | -67.86254 | 35803 ft | 439 kts | 240° |
| 2026-05-03 20:24 | 48.27692 | -67.94599 | 35798 ft | 440 kts | 240° |
| 2026-05-03 20:24 | 48.25130 | -68.02934 | 35797 ft | 440 kts | 240° |
| 2026-05-03 20:25 | 48.22556 | -68.11279 | 35813 ft | 442 kts | 240° |
| 2026-05-03 20:25 | 48.19965 | -68.19655 | 35806 ft | 443 kts | 240° |
| 2026-05-03 20:26 | 48.17365 | -68.28031 | 35798 ft | 444 kts | 240° |
| 2026-05-03 20:26 | 48.14756 | -68.36405 | 35798 ft | 444 kts | 240° |
| 2026-05-03 20:27 | 48.12155 | -68.44730 | 35804 ft | 444 kts | 240° |
| 2026-05-03 20:27 | 48.09527 | -68.53111 | 35786 ft | 445 kts | 240° |
| 2026-05-03 20:28 | 48.06893 | -68.61485 | 35797 ft | 445 kts | 240° |
| 2026-05-03 20:28 | 48.04255 | -68.69842 | 35828 ft | 445 kts | 240° |
| 2026-05-03 20:29 | 48.01606 | -68.78206 | 35800 ft | 446 kts | 240° |
| 2026-05-03 20:29 | 47.98947 | -68.86572 | 35800 ft | 446 kts | 240° |
| 2026-05-03 20:30 | 47.96278 | -68.94943 | 35792 ft | 447 kts | 240° |
| 2026-05-03 20:30 | 47.93598 | -69.03322 | 35788 ft | 448 kts | 240° |
| 2026-05-03 20:31 | 47.90905 | -69.11715 | 35796 ft | 449 kts | 240° |
| 2026-05-03 20:31 | 47.88207 | -69.20096 | 35794 ft | 449 kts | 240° |
| 2026-05-03 20:32 | 47.85504 | -69.28462 | 35795 ft | 448 kts | 240° |
| 2026-05-03 20:32 | 47.82791 | -69.36835 | 35806 ft | 449 kts | 240° |
| 2026-05-03 20:33 | 47.80068 | -69.45213 | 35796 ft | 450 kts | 240° |
| 2026-05-03 20:33 | 47.77334 | -69.53598 | 35794 ft | 450 kts | 240° |
| 2026-05-03 20:34 | 47.74246 | -69.61647 | 35823 ft | 449 kts | 231° |
| 2026-05-03 20:34 | 47.72347 | -69.65342 | 36015 ft | 450 kts | 229° |
| 2026-05-03 20:34 | 47.70429 | -69.69003 | 36367 ft | 449 kts | 229° |
| 2026-05-03 20:34 | 47.68517 | -69.72661 | 36702 ft | 449 kts | 230° |
| 2026-05-03 20:35 | 47.66606 | -69.76327 | 36975 ft | 450 kts | 230° |
| 2026-05-03 20:35 | 47.64691 | -69.80007 | 37260 ft | 450 kts | 230° |
| 2026-05-03 20:35 | 47.62784 | -69.83679 | 37551 ft | 450 kts | 230° |
| 2026-05-03 20:35 | 47.60872 | -69.87358 | 37712 ft | 452 kts | 230° |
| 2026-05-03 20:36 | 47.58948 | -69.91059 | 37744 ft | 453 kts | 230° |
| 2026-05-03 20:36 | 47.55753 | -69.97195 | 37785 ft | 452 kts | 230° |
| 2026-05-03 20:37 | 47.51912 | -70.04554 | 37772 ft | 452 kts | 230° |
| 2026-05-03 20:37 | 47.48065 | -70.11900 | 37787 ft | 452 kts | 230° |
| 2026-05-03 20:38 | 47.44213 | -70.19238 | 37767 ft | 452 kts | 230° |
| 2026-05-03 20:38 | 47.40349 | -70.26577 | 37765 ft | 453 kts | 230° |
| 2026-05-03 20:39 | 47.36475 | -70.33916 | 37765 ft | 453 kts | 230° |
| 2026-05-03 20:39 | 47.32591 | -70.41254 | 37783 ft | 454 kts | 230° |
| 2026-05-03 20:40 | 47.28727 | -70.48537 | 37765 ft | 455 kts | 230° |
| 2026-05-03 20:40 | 47.24823 | -70.55874 | 37762 ft | 455 kts | 230° |
| 2026-05-03 20:41 | 47.20918 | -70.63194 | 37768 ft | 455 kts | 230° |
| 2026-05-03 20:41 | 47.16998 | -70.70522 | 37774 ft | 456 kts | 230° |
| 2026-05-03 20:42 | 47.13070 | -70.77845 | 37776 ft | 457 kts | 230° |
| 2026-05-03 20:42 | 47.09129 | -70.85174 | 37775 ft | 457 kts | 230° |
| 2026-05-03 20:43 | 47.05193 | -70.92474 | 37770 ft | 458 kts | 230° |
| 2026-05-03 20:43 | 47.01239 | -70.99787 | 37783 ft | 458 kts | 230° |
| 2026-05-03 20:44 | 46.97285 | -71.07081 | 37784 ft | 458 kts | 230° |
| 2026-05-03 20:44 | 46.93320 | -71.14378 | 37784 ft | 458 kts | 230° |
| 2026-05-03 20:45 | 46.89352 | -71.21660 | 37788 ft | 457 kts | 230° |
| 2026-05-03 20:45 | 46.85382 | -71.28928 | 37801 ft | 458 kts | 230° |
| 2026-05-03 20:46 | 46.81408 | -71.36187 | 37822 ft | 458 kts | 230° |
| 2026-05-03 20:46 | 46.77819 | -71.43867 | 37809 ft | 460 kts | 239° |
| 2026-05-03 20:47 | 46.74683 | -71.52004 | 37806 ft | 460 kts | 239° |
| 2026-05-03 20:47 | 46.71492 | -71.60110 | 37807 ft | 461 kts | 239° |
| 2026-05-03 20:48 | 46.68775 | -71.68572 | 37808 ft | 463 kts | 246° |
| 2026-05-03 20:48 | 46.66411 | -71.77304 | 37818 ft | 464 kts | 246° |
| 2026-05-03 20:49 | 46.64025 | -71.86021 | 37813 ft | 464 kts | 246° |
| 2026-05-03 20:49 | 46.61606 | -71.94735 | 37829 ft | 464 kts | 246° |
| 2026-05-03 20:50 | 46.59178 | -72.03434 | 37830 ft | 464 kts | 246° |
| 2026-05-03 20:50 | 46.56744 | -72.12129 | 37829 ft | 464 kts | 246° |
| 2026-05-03 20:51 | 46.54322 | -72.20750 | 37831 ft | 464 kts | 246° |
| 2026-05-03 20:51 | 46.51873 | -72.29417 | 37832 ft | 464 kts | 246° |
| 2026-05-03 20:52 | 46.49417 | -72.38078 | 37838 ft | 464 kts | 246° |
| 2026-05-03 20:52 | 46.46965 | -72.46709 | 37845 ft | 464 kts | 246° |
| 2026-05-03 20:53 | 46.44499 | -72.55349 | 37837 ft | 463 kts | 246° |
| 2026-05-03 20:53 | 46.42021 | -72.63978 | 37838 ft | 463 kts | 246° |
| 2026-05-03 20:54 | 46.39543 | -72.72588 | 37830 ft | 463 kts | 246° |
| 2026-05-03 20:54 | 46.35815 | -72.85489 | 37834 ft | 463 kts | 246° |
| 2026-05-03 20:55 | 46.33340 | -72.94091 | 37837 ft | 463 kts | 246° |
| 2026-05-03 20:55 | 46.30868 | -73.02696 | 37833 ft | 463 kts | 246° |
| 2026-05-03 20:56 | 46.28389 | -73.11292 | 37841 ft | 463 kts | 246° |
| 2026-05-03 20:56 | 46.25904 | -73.19875 | 37842 ft | 463 kts | 246° |
| 2026-05-03 20:57 | 46.23418 | -73.28405 | 37843 ft | 463 kts | 246° |
| 2026-05-03 20:57 | 46.20908 | -73.36970 | 37844 ft | 463 kts | 246° |
| 2026-05-03 20:58 | 46.18383 | -73.45533 | 37840 ft | 464 kts | 246° |
| 2026-05-03 20:58 | 46.15850 | -73.54083 | 37847 ft | 463 kts | 246° |
| 2026-05-03 20:59 | 46.13313 | -73.62626 | 37843 ft | 463 kts | 246° |
| 2026-05-03 20:59 | 46.10770 | -73.71163 | 37845 ft | 463 kts | 246° |
| 2026-05-03 21:00 | 46.08654 | -73.78249 | 37842 ft | 463 kts | 246° |
| 2026-05-03 21:00 | 46.05626 | -73.88175 | 37842 ft | 463 kts | 242° |
| 2026-05-03 21:01 | 46.02260 | -73.96039 | 37840 ft | 462 kts | 233° |
| 2026-05-03 21:01 | 45.98311 | -74.03336 | 37845 ft | 462 kts | 232° |
| 2026-05-03 21:02 | 45.94361 | -74.10630 | 37844 ft | 463 kts | 232° |
| 2026-05-03 21:02 | 45.90422 | -74.17956 | 37843 ft | 463 kts | 232° |
| 2026-05-03 21:03 | 45.86485 | -74.25283 | 37842 ft | 464 kts | 233° |
| 2026-05-03 21:03 | 45.82566 | -74.32555 | 37844 ft | 464 kts | 232° |
| 2026-05-03 21:04 | 45.78603 | -74.39867 | 37844 ft | 464 kts | 232° |
| 2026-05-03 21:04 | 45.74633 | -74.47146 | 37844 ft | 464 kts | 232° |
| 2026-05-03 21:05 | 45.70656 | -74.54425 | 37852 ft | 464 kts | 232° |
| 2026-05-03 21:05 | 45.66677 | -74.61693 | 37849 ft | 464 kts | 232° |
| 2026-05-03 21:06 | 45.62693 | -74.68953 | 37848 ft | 464 kts | 232° |
| 2026-05-03 21:06 | 45.58708 | -74.76199 | 37853 ft | 464 kts | 232° |
| 2026-05-03 21:07 | 45.54715 | -74.83439 | 37842 ft | 464 kts | 232° |
| 2026-05-03 21:07 | 45.50720 | -74.90666 | 37851 ft | 463 kts | 232° |
| 2026-05-03 21:08 | 45.46726 | -74.97874 | 37857 ft | 463 kts | 233° |
| 2026-05-03 21:08 | 45.43452 | -75.05722 | 37862 ft | 462 kts | 247° |
| 2026-05-03 21:09 | 45.41522 | -75.14414 | 37855 ft | 462 kts | 258° |
| 2026-05-03 21:09 | 45.40261 | -75.23376 | 37842 ft | 462 kts | 258° |
| 2026-05-03 21:10 | 45.39009 | -75.32337 | 37842 ft | 462 kts | 258° |
| 2026-05-03 21:10 | 45.37824 | -75.40525 | 37839 ft | 462 kts | 258° |
| 2026-05-03 21:11 | 45.36504 | -75.49457 | 37835 ft | 461 kts | 258° |
| 2026-05-03 21:11 | 45.35175 | -75.58381 | 37842 ft | 461 kts | 258° |
| 2026-05-03 21:12 | 45.33840 | -75.67296 | 37829 ft | 461 kts | 258° |
| 2026-05-03 21:12 | 45.32501 | -75.76201 | 37836 ft | 460 kts | 258° |
| 2026-05-03 21:13 | 45.31157 | -75.85089 | 37834 ft | 460 kts | 258° |
| 2026-05-03 21:13 | 45.29804 | -75.93980 | 37850 ft | 460 kts | 258° |
| 2026-05-03 21:14 | 45.28457 | -76.02793 | 37853 ft | 459 kts | 258° |
| 2026-05-03 21:14 | 45.27096 | -76.11651 | 37849 ft | 459 kts | 258° |
| 2026-05-03 21:15 | 45.25720 | -76.20490 | 37846 ft | 457 kts | 256° |
| 2026-05-03 21:15 | 45.24599 | -76.24711 | 37847 ft | 458 kts | 242° |
| 2026-05-03 21:15 | 45.22731 | -76.28356 | 37853 ft | 457 kts | 230° |
| 2026-05-03 21:16 | 45.18478 | -76.35083 | 37857 ft | 460 kts | 230° |
| 2026-05-03 21:16 | 45.14250 | -76.41928 | 37846 ft | 462 kts | 231° |
| 2026-05-03 21:17 | 45.10754 | -76.47654 | 37862 ft | 463 kts | 231° |
| 2026-05-03 21:17 | 45.05822 | -76.55741 | 37854 ft | 465 kts | 231° |
| 2026-05-03 21:18 | 45.01586 | -76.62662 | 37858 ft | 466 kts | 231° |
| 2026-05-03 21:18 | 44.97344 | -76.69574 | 37851 ft | 465 kts | 231° |
| 2026-05-03 21:19 | 44.93104 | -76.76465 | 37860 ft | 464 kts | 231° |
| 2026-05-03 21:19 | 44.88870 | -76.83330 | 37861 ft | 463 kts | 231° |
| 2026-05-03 21:20 | 44.84666 | -76.90133 | 37547 ft | 456 kts | 231° |
| 2026-05-03 21:20 | 44.82617 | -76.93439 | 37108 ft | 451 kts | 231° |
| 2026-05-03 21:20 | 44.80617 | -76.96794 | 36676 ft | 444 kts | 237° |
| 2026-05-03 21:21 | 44.78980 | -77.00438 | 36227 ft | 437 kts | 242° |
| 2026-05-03 21:21 | 44.77494 | -77.04209 | 35793 ft | 432 kts | 243° |
| 2026-05-03 21:21 | 44.76096 | -77.07870 | 35347 ft | 428 kts | 244° |
| 2026-05-03 21:21 | 44.74685 | -77.11539 | 34903 ft | 425 kts | 243° |
| 2026-05-03 21:22 | 44.73264 | -77.15167 | 34460 ft | 422 kts | 243° |
| 2026-05-03 21:22 | 44.71833 | -77.18760 | 34011 ft | 419 kts | 243° |
| 2026-05-03 21:22 | 44.70400 | -77.22313 | 33486 ft | 417 kts | 243° |
| 2026-05-03 21:22 | 44.68970 | -77.25835 | 32980 ft | 413 kts | 243° |
| 2026-05-03 21:23 | 44.67552 | -77.29313 | 32526 ft | 409 kts | 243° |
| 2026-05-03 21:23 | 44.66144 | -77.32763 | 32071 ft | 405 kts | 243° |
| 2026-05-03 21:23 | 44.64751 | -77.36172 | 31627 ft | 401 kts | 243° |
| 2026-05-03 21:23 | 44.63369 | -77.39552 | 31179 ft | 397 kts | 243° |
| 2026-05-03 21:24 | 44.61998 | -77.42904 | 30740 ft | 394 kts | 244° |
| 2026-05-03 21:24 | 44.60635 | -77.46231 | 30310 ft | 391 kts | 244° |
| 2026-05-03 21:24 | 44.59303 | -77.49479 | 29862 ft | 389 kts | 244° |
| 2026-05-03 21:24 | 44.57961 | -77.52750 | 29368 ft | 386 kts | 244° |
| 2026-05-03 21:25 | 44.57077 | -77.54901 | 29084 ft | 383 kts | 244° |
| 2026-05-03 21:25 | 44.55754 | -77.58121 | 28620 ft | 379 kts | 244° |
| 2026-05-03 21:25 | 44.54498 | -77.61175 | 28200 ft | 376 kts | 244° |
| 2026-05-03 21:25 | 44.53199 | -77.64327 | 27759 ft | 373 kts | 244° |
| 2026-05-03 21:26 | 44.51906 | -77.67459 | 27309 ft | 370 kts | 245° |
| 2026-05-03 21:26 | 44.50620 | -77.70569 | 26882 ft | 367 kts | 245° |
| 2026-05-03 21:26 | 44.49341 | -77.73652 | 26462 ft | 365 kts | 245° |
| 2026-05-03 21:26 | 44.48070 | -77.76715 | 26036 ft | 362 kts | 245° |
| 2026-05-03 21:27 | 44.46808 | -77.79754 | 25609 ft | 360 kts | 245° |
| 2026-05-03 21:27 | 44.45550 | -77.82782 | 25180 ft | 358 kts | 245° |
| 2026-05-03 21:27 | 44.44299 | -77.85789 | 24772 ft | 357 kts | 245° |
| 2026-05-03 21:27 | 44.43056 | -77.88776 | 24367 ft | 355 kts | 245° |
| 2026-05-03 21:28 | 44.41816 | -77.91755 | 23961 ft | 353 kts | 245° |
| 2026-05-03 21:28 | 44.40578 | -77.94722 | 23530 ft | 352 kts | 245° |
| 2026-05-03 21:28 | 44.39348 | -77.97671 | 23050 ft | 351 kts | 245° |
| 2026-05-03 21:28 | 44.38121 | -78.00608 | 22615 ft | 348 kts | 245° |
| 2026-05-03 21:29 | 44.36903 | -78.03519 | 22198 ft | 346 kts | 245° |
| 2026-05-03 21:29 | 44.35692 | -78.06405 | 21785 ft | 343 kts | 245° |
| 2026-05-03 21:29 | 44.34491 | -78.09266 | 21384 ft | 340 kts | 245° |
| 2026-05-03 21:29 | 44.33295 | -78.12106 | 20987 ft | 338 kts | 245° |
| 2026-05-03 21:30 | 44.32106 | -78.14931 | 20575 ft | 336 kts | 246° |
| 2026-05-03 21:30 | 44.30924 | -78.17734 | 20182 ft | 334 kts | 246° |
| 2026-05-03 21:30 | 44.29747 | -78.20524 | 19775 ft | 332 kts | 246° |
| 2026-05-03 21:30 | 44.28577 | -78.23296 | 19371 ft | 331 kts | 246° |
| 2026-05-03 21:31 | 44.27411 | -78.26057 | 18964 ft | 330 kts | 246° |
| 2026-05-03 21:31 | 44.26249 | -78.28805 | 18577 ft | 328 kts | 246° |
| 2026-05-03 21:31 | 44.25091 | -78.31544 | 18174 ft | 328 kts | 246° |
| 2026-05-03 21:31 | 44.23932 | -78.34281 | 17716 ft | 327 kts | 246° |
| 2026-05-03 21:32 | 44.22794 | -78.36966 | 17287 ft | 325 kts | 246° |
| 2026-05-03 21:32 | 44.21632 | -78.39704 | 16876 ft | 323 kts | 246° |
| 2026-05-03 21:32 | 44.20506 | -78.42351 | 16589 ft | 318 kts | 246° |
| 2026-05-03 21:32 | 44.19420 | -78.44905 | 16233 ft | 316 kts | 246° |
| 2026-05-03 21:33 | 44.18288 | -78.47565 | 15836 ft | 315 kts | 246° |
| 2026-05-03 21:33 | 44.17187 | -78.50154 | 15445 ft | 314 kts | 246° |
| 2026-05-03 21:33 | 44.16059 | -78.52801 | 15047 ft | 313 kts | 246° |
| 2026-05-03 21:33 | 44.14947 | -78.55409 | 14646 ft | 313 kts | 246° |
| 2026-05-03 21:34 | 44.13855 | -78.57966 | 14255 ft | 312 kts | 246° |
| 2026-05-03 21:34 | 44.12727 | -78.60606 | 13855 ft | 312 kts | 245° |
| 2026-05-03 21:34 | 44.11617 | -78.63200 | 13438 ft | 312 kts | 245° |
| 2026-05-03 21:34 | 44.10510 | -78.65789 | 13007 ft | 311 kts | 245° |
| 2026-05-03 21:35 | 44.07225 | -78.73450 | 11791 ft | 307 kts | 244° |
| 2026-05-03 21:35 | 44.06134 | -78.75990 | 11398 ft | 305 kts | 244° |
| 2026-05-03 21:36 | 44.05047 | -78.78516 | 10986 ft | 304 kts | 244° |
| 2026-05-03 21:36 | 44.03931 | -78.80998 | 10595 ft | 303 kts | 238° |
| 2026-05-03 21:36 | 44.02568 | -78.83249 | 10264 ft | 303 kts | 232° |
| 2026-05-03 21:36 | 44.01137 | -78.85328 | 10159 ft | 294 kts | 231° |
| 2026-05-03 21:37 | 43.99738 | -78.87337 | 9946 ft | 287 kts | 231° |
| 2026-05-03 21:37 | 43.98374 | -78.89318 | 9754 ft | 280 kts | 231° |
| 2026-05-03 21:37 | 43.97082 | -78.91249 | 9561 ft | 267 kts | 236° |
| 2026-05-03 21:37 | 43.96182 | -78.93403 | 9400 ft | 253 kts | 249° |
| 2026-05-03 21:38 | 43.95454 | -78.95582 | 9253 ft | 245 kts | 248° |
| 2026-05-03 21:38 | 43.94731 | -78.97698 | 9055 ft | 240 kts | 248° |
| 2026-05-03 21:38 | 43.94014 | -78.99780 | 8770 ft | 239 kts | 248° |
| 2026-05-03 21:38 | 43.93297 | -79.01853 | 8442 ft | 238 kts | 248° |
| 2026-05-03 21:39 | 43.92576 | -79.03930 | 8148 ft | 239 kts | 248° |
| 2026-05-03 21:39 | 43.91856 | -79.05997 | 7869 ft | 238 kts | 247° |
| 2026-05-03 21:39 | 43.91135 | -79.08062 | 7567 ft | 238 kts | 246° |
| 2026-05-03 21:39 | 43.90411 | -79.10128 | 7293 ft | 238 kts | 246° |
| 2026-05-03 21:40 | 43.89690 | -79.12179 | 7034 ft | 235 kts | 246° |
| 2026-05-03 21:40 | 43.88978 | -79.14199 | 6820 ft | 231 kts | 246° |
| 2026-05-03 21:40 | 43.88273 | -79.16202 | 6532 ft | 231 kts | 246° |
| 2026-05-03 21:40 | 43.87569 | -79.18203 | 6234 ft | 231 kts | 246° |
| 2026-05-03 21:41 | 43.86865 | -79.20200 | 5926 ft | 230 kts | 246° |
| 2026-05-03 21:41 | 43.86177 | -79.22147 | 5931 ft | 221 kts | 246° |
| 2026-05-03 21:41 | 43.85493 | -79.24085 | 5933 ft | 227 kts | 246° |
| 2026-05-03 21:41 | 43.84801 | -79.26045 | 5860 ft | 233 kts | 246° |
| 2026-05-03 21:42 | 43.84074 | -79.28101 | 5492 ft | 239 kts | 246° |
| 2026-05-03 21:42 | 43.83345 | -79.30159 | 5178 ft | 238 kts | 246° |
| 2026-05-03 21:42 | 43.82618 | -79.32210 | 4865 ft | 237 kts | 246° |
| 2026-05-03 21:42 | 43.81901 | -79.34230 | 4556 ft | 235 kts | 246° |
| 2026-05-03 21:43 | 43.81182 | -79.36258 | 4236 ft | 234 kts | 245° |
| 2026-05-03 21:43 | 43.80469 | -79.38267 | 3979 ft | 231 kts | 245° |
| 2026-05-03 21:43 | 43.79777 | -79.40238 | 3877 ft | 222 kts | 246° |
| 2026-05-03 21:43 | 43.79117 | -79.42154 | 3588 ft | 219 kts | 245° |
| 2026-05-03 21:44 | 43.78319 | -79.43924 | 3280 ft | 216 kts | 235° |
| 2026-05-03 21:44 | 43.77344 | -79.45445 | 3207 ft | 204 kts | 230° |
| 2026-05-03 21:44 | 43.76399 | -79.46816 | 3150 ft | 189 kts | 231° |
| 2026-05-03 21:44 | 43.75506 | -79.48053 | 2904 ft | 177 kts | 230° |
| 2026-05-03 21:45 | 43.74704 | -79.49244 | 2595 ft | 163 kts | 232° |
| 2026-05-03 21:45 | 43.73963 | -79.50361 | 2380 ft | 154 kts | 232° |
| 2026-05-03 21:45 | 43.73220 | -79.51436 | 2183 ft | 156 kts | 232° |
| 2026-05-03 21:45 | 43.72477 | -79.52530 | 2003 ft | 157 kts | 231° |
| 2026-05-03 21:46 | 43.71728 | -79.53591 | 1829 ft | 154 kts | 230° |
| 2026-05-03 21:46 | 43.70999 | -79.54640 | 1638 ft | 147 kts | 231° |
| 2026-05-03 21:46 | 43.70309 | -79.55644 | 1383 ft | 141 kts | 231° |
| 2026-05-03 21:46 | 43.69690 | -79.56576 | 1214 ft | 132 kts | 232° |
| 2026-05-03 21:47 | 43.69058 | -79.57495 | 1037 ft | 132 kts | 227° |
| 2026-05-03 21:47 | 43.68417 | -79.58415 | 869 ft | 135 kts | 230° |
| 2026-05-03 21:47 | 43.67775 | -79.59354 | 679 ft | 134 kts | 230° |
| 2026-05-03 21:47 | 43.67146 | -79.60277 | 571 ft | 126 kts | 227° |
| 2026-05-03 21:48 | 43.66631 | -79.61025 | 574 ft | 85 kts | 226° |
| 2026-05-03 21:48 | 43.66325 | -79.61469 | 567 ft | 41 kts | 226° |
| 2026-05-03 21:48 | 43.66147 | -79.61728 | 574 ft | 33 kts | 226° |
| 2026-05-03 21:48 | 43.66020 | -79.61959 | 571 ft | 30 kts | 248° |
| 2026-05-03 21:49 | 43.65998 | -79.62201 | 568 ft | 21 kts | 300° |
| 2026-05-03 21:49 | 43.66103 | -79.62344 | 570 ft | 21 kts | 315° |
| 2026-05-03 21:49 | 43.66210 | -79.62484 | 565 ft | 16 kts | 321° |
| 2026-05-03 21:49 | 43.66301 | -79.62470 | 572 ft | 14 kts | 39° |
| 2026-05-03 21:50 | 43.66377 | -79.62376 | 570 ft | 14 kts | 43° |
| 2026-05-03 21:50 | 43.66448 | -79.62286 | 575 ft | 14 kts | 42° |
| 2026-05-03 21:50 | 43.66522 | -79.62193 | 577 ft | 14 kts | 43° |
| 2026-05-03 21:50 | 43.66597 | -79.62099 | 576 ft | 14 kts | 43° |
| 2026-05-03 21:51 | 43.66671 | -79.62005 | 576 ft | 14 kts | 43° |
| 2026-05-03 21:51 | 43.66744 | -79.61914 | 578 ft | 14 kts | 41° |
| 2026-05-03 21:51 | 43.66818 | -79.61821 | 577 ft | 14 kts | 42° |
| 2026-05-03 21:51 | 43.66901 | -79.61717 | 577 ft | 18 kts | 42° |
| 2026-05-03 21:52 | 43.66992 | -79.61602 | 578 ft | 18 kts | 43° |
| 2026-05-03 21:52 | 43.67083 | -79.61487 | 578 ft | 18 kts | 42° |
| 2026-05-03 21:52 | 43.67174 | -79.61371 | 579 ft | 18 kts | 46° |
| 2026-05-03 21:52 | 43.67237 | -79.61262 | 576 ft | 10 kts | 33° |
| 2026-05-03 21:53 | 43.67299 | -79.61291 | 572 ft | 10 kts | 318° |
| 2026-05-03 21:53 | 43.67361 | -79.61372 | 570 ft | 15 kts | 316° |
| 2026-05-03 21:53 | 43.67448 | -79.61486 | 574 ft | 18 kts | 317° |
| 2026-05-03 21:53 | 43.67538 | -79.61604 | 570 ft | 18 kts | 316° |
| 2026-05-03 21:54 | 43.67629 | -79.61721 | 574 ft | 18 kts | 318° |
| 2026-05-03 21:54 | 43.67720 | -79.61839 | 570 ft | 18 kts | 316° |
| 2026-05-03 21:54 | 43.67809 | -79.61958 | 575 ft | 18 kts | 315° |
| 2026-05-03 21:54 | 43.67902 | -79.62066 | 574 ft | 17 kts | 343° |
| 2026-05-03 21:55 | 43.67997 | -79.62000 | 575 ft | 16 kts | 23° |
| 2026-05-03 21:55 | 43.68061 | -79.61961 | 573 ft | 8 kts | 20° |
| 2026-05-03 21:55 | 43.68099 | -79.61964 | 571 ft | 5 kts | 352° |
| 2026-05-03 21:55 | 43.68129 | -79.61971 | 570 ft | 4 kts | 349° |
| 2026-05-03 21:56 | 43.68152 | -79.61977 | 571 ft | 3 kts | 349° |
| 2026-05-03 21:56 | 43.68170 | -79.61982 | 573 ft | 1 kts | 349° |
| 2026-05-03 21:56 | 43.68173 | -79.61983 | 574 ft | 0 kts | 349° |